createdAt,value
2018-06-16T00:02:57.276Z,19.80
2018-06-16T00:07:55.455Z,19.70
2018-06-16T00:10:24.139Z,19.70
2018-06-16T00:12:52.658Z,19.70
2018-06-16T00:22:46.182Z,19.70
2018-06-16T00:25:14.838Z,19.70
2018-06-16T00:30:11.656Z,19.70
2018-06-16T00:32:40.222Z,19.60
2018-06-16T00:35:08.910Z,19.60
2018-06-16T00:37:37.497Z,19.60
2018-06-16T00:40:06.787Z,19.60
2018-06-16T00:42:35.651Z,19.60
2018-06-16T00:45:04.356Z,19.60
2018-06-16T00:47:32.937Z,19.70
2018-06-16T00:50:02.214Z,19.60
2018-06-16T00:55:02.054Z,19.60
2018-06-16T00:57:47.462Z,19.60
2018-06-16T01:00:17.283Z,19.50
2018-06-16T01:02:46.202Z,19.50
2018-06-16T01:05:14.922Z,19.50
2018-06-16T01:07:43.521Z,19.40
2018-06-16T01:10:12.705Z,19.40
2018-06-16T01:12:41.309Z,19.40
2018-06-16T01:15:09.931Z,19.30
2018-06-16T01:17:38.526Z,19.30
2018-06-16T01:20:10.155Z,19.30
2018-06-16T01:22:38.704Z,19.20
2018-06-16T01:25:07.255Z,19.20
2018-06-16T01:32:32.432Z,19.10
2018-06-16T01:35:01.022Z,19.00
2018-06-16T01:37:30.266Z,19.00
2018-06-16T01:44:55.517Z,18.90
2018-06-16T01:49:53.795Z,18.80
2018-06-16T01:54:51.489Z,18.80
2018-06-16T01:57:20.056Z,18.70
2018-06-16T02:02:16.840Z,18.60
2018-06-16T02:04:45.449Z,18.60
2018-06-16T02:07:14.072Z,18.50
2018-06-16T02:09:42.612Z,18.50
2018-06-16T02:12:11.149Z,18.50
2018-06-16T02:22:04.464Z,18.40
2018-06-16T02:24:33.031Z,18.40
2018-06-16T02:29:30.852Z,18.30
2018-06-16T02:31:59.409Z,18.30
2018-06-16T02:34:28.003Z,18.30
2018-06-16T02:36:56.528Z,18.40
2018-06-16T02:39:25.136Z,18.40
2018-06-16T02:44:22.796Z,18.40
2018-06-16T02:46:51.467Z,18.50
2018-06-16T02:49:20.080Z,18.50
2018-06-16T02:51:48.777Z,18.50
2018-06-16T02:56:45.559Z,18.60
2018-06-16T02:59:14.143Z,18.60
2018-06-16T03:01:42.711Z,18.60
2018-06-16T03:04:11.286Z,18.60
2018-06-16T03:09:09.066Z,18.70
2018-06-16T03:11:37.971Z,18.70
2018-06-16T03:14:06.594Z,18.70
2018-06-16T03:16:35.326Z,18.70
2018-06-16T03:19:03.854Z,18.70
2018-06-16T03:21:32.554Z,18.80
2018-06-16T03:24:01.194Z,18.80
2018-06-16T03:26:29.783Z,18.80
2018-06-16T03:28:58.339Z,18.80
2018-06-16T03:33:55.246Z,18.80
2018-06-16T03:36:23.888Z,18.80
2018-06-16T03:38:52.514Z,18.90
2018-06-16T03:41:21.060Z,18.80
2018-06-16T03:43:49.666Z,18.80
2018-06-16T03:46:18.253Z,18.80
2018-06-16T03:48:46.798Z,18.90
2018-06-16T03:51:15.433Z,18.90
2018-06-16T03:53:44.006Z,19.00
2018-06-16T03:56:12.608Z,19.10
2018-06-16T03:58:41.183Z,19.10
2018-06-16T04:01:09.742Z,19.20
2018-06-16T04:03:38.336Z,19.20
2018-06-16T04:06:07.097Z,19.20
2018-06-16T04:08:35.659Z,19.30
2018-06-16T04:13:32.542Z,19.40
2018-06-16T04:16:01.248Z,19.50
2018-06-16T04:18:29.868Z,19.50
2018-06-16T04:20:58.414Z,19.50
2018-06-16T04:23:26.991Z,19.50
2018-06-16T04:25:55.576Z,19.50
2018-06-16T04:28:25.475Z,19.50
2018-06-16T04:30:54.106Z,19.60
2018-06-16T04:33:22.780Z,19.70
2018-06-16T04:35:51.397Z,19.70
2018-06-16T04:40:48.314Z,19.90
2018-06-16T04:43:16.951Z,20.00
2018-06-16T04:48:14.925Z,20.10
2018-06-16T04:53:12.739Z,20.20
2018-06-16T04:55:41.397Z,20.30
2018-06-16T04:58:09.962Z,20.30
2018-06-16T05:05:35.386Z,20.50
2018-06-16T05:08:03.924Z,20.60
2018-06-16T05:10:32.568Z,20.70
2018-06-16T05:15:29.430Z,20.90
2018-06-16T05:20:26.343Z,21.00
2018-06-16T05:22:54.994Z,21.00
2018-06-16T05:25:23.593Z,21.10
2018-06-16T05:27:52.189Z,21.20
2018-06-16T05:30:21.457Z,21.30
2018-06-16T05:32:50.036Z,21.40
2018-06-16T05:35:18.995Z,21.50
2018-06-16T05:37:47.639Z,21.60
2018-06-16T05:40:16.230Z,21.80
2018-06-16T05:42:44.914Z,21.90
2018-06-16T05:45:13.588Z,21.90
2018-06-16T05:47:42.200Z,22.00
2018-06-16T05:50:10.784Z,22.10
2018-06-16T05:52:39.385Z,22.00
2018-06-16T05:55:07.988Z,22.00
2018-06-16T05:57:36.620Z,22.10
2018-06-16T06:00:05.504Z,22.10
2018-06-16T06:02:34.103Z,22.30
2018-06-16T06:05:02.612Z,22.40
2018-06-16T06:12:27.926Z,22.60
2018-06-16T06:14:56.494Z,22.80
2018-06-16T06:17:25.133Z,22.70
2018-06-16T06:22:28.707Z,22.70
2018-06-16T06:24:57.341Z,22.80
2018-06-16T06:27:25.945Z,23.00
2018-06-16T06:29:54.486Z,23.10
2018-06-16T06:34:53.058Z,23.30
2018-06-16T06:37:21.680Z,23.30
2018-06-16T06:39:50.590Z,23.30
2018-06-16T06:42:19.186Z,23.30
2018-06-16T06:44:47.779Z,23.30
2018-06-16T06:47:16.588Z,23.30
2018-06-16T06:49:45.235Z,23.20
2018-06-16T06:52:13.807Z,23.50
2018-06-16T06:54:42.424Z,23.70
2018-06-16T06:57:11.359Z,23.80
2018-06-16T07:02:08.257Z,24.00
2018-06-16T07:04:36.860Z,24.00
2018-06-16T07:07:05.664Z,24.10
2018-06-16T07:09:34.270Z,24.10
2018-06-16T07:14:31.291Z,24.30
2018-06-16T07:16:59.852Z,24.50
2018-06-16T07:19:28.520Z,24.60
2018-06-16T07:21:57.144Z,24.70
2018-06-16T07:24:25.744Z,24.80
2018-06-16T07:26:54.379Z,24.70
2018-06-16T07:29:23.447Z,24.70
2018-06-16T07:34:27.236Z,24.90
2018-06-16T07:36:55.983Z,24.80
2018-06-16T07:39:24.591Z,24.80
2018-06-16T07:41:53.171Z,24.90
2018-06-16T07:44:22.026Z,24.90
2018-06-16T07:46:50.548Z,24.70
2018-06-16T07:49:19.152Z,24.90
2018-06-16T07:51:47.971Z,25.00
2018-06-16T07:54:16.569Z,25.30
2018-06-16T07:56:45.271Z,25.50
2018-06-16T07:59:13.862Z,25.70
2018-06-16T08:01:42.528Z,25.70
2018-06-16T08:04:11.209Z,25.70
2018-06-16T08:06:39.845Z,25.90
2018-06-16T08:09:09.920Z,26.00
2018-06-16T08:11:40.069Z,26.20
2018-06-16T08:14:08.677Z,26.20
2018-06-16T08:16:37.284Z,26.60
2018-06-16T08:19:05.814Z,26.90
2018-06-16T08:21:34.529Z,27.00
2018-06-16T08:24:04.972Z,27.10
2018-06-16T08:29:01.832Z,27.00
2018-06-16T08:33:58.803Z,27.20
2018-06-16T08:36:27.374Z,27.30
2018-06-16T08:43:52.526Z,26.80
2018-06-16T08:46:21.101Z,26.80
2018-06-16T08:48:49.696Z,26.40
2018-06-16T08:51:18.215Z,26.20
2018-06-16T08:53:46.808Z,26.20
2018-06-16T08:56:15.558Z,26.30
2018-06-16T08:58:44.153Z,26.40
2018-06-16T09:01:12.683Z,26.40
2018-06-16T09:06:11.147Z,26.40
2018-06-16T09:08:39.928Z,26.50
2018-06-16T09:11:08.530Z,26.70
2018-06-16T09:13:37.067Z,27.10
2018-06-16T09:16:05.696Z,27.30
2018-06-16T09:18:35.338Z,27.30
2018-06-16T09:21:03.994Z,27.50
2018-06-16T09:23:32.593Z,27.50
2018-06-16T09:28:29.622Z,27.40
2018-06-16T09:30:58.298Z,27.80
2018-06-16T09:33:26.994Z,28.10
2018-06-16T09:35:55.581Z,28.40
2018-06-16T09:38:24.492Z,28.30
2018-06-16T09:43:21.596Z,28.00
2018-06-16T09:45:50.399Z,27.50
2018-06-16T09:48:19.669Z,27.00
2018-06-16T09:50:48.334Z,27.10
2018-06-16T09:55:45.316Z,27.70
2018-06-16T09:58:13.904Z,27.90
2018-06-16T10:00:42.694Z,27.90
2018-06-16T10:03:12.212Z,27.90
2018-06-16T10:05:40.776Z,28.20
2018-06-16T10:08:09.926Z,28.00
2018-06-16T10:10:38.650Z,28.20
2018-06-16T10:13:07.439Z,28.10
2018-06-16T10:15:36.067Z,28.00
2018-06-16T10:18:04.617Z,28.10
2018-06-16T10:20:33.358Z,28.30
2018-06-16T10:23:02.068Z,28.30
2018-06-16T10:25:31.102Z,28.00
2018-06-16T10:27:59.629Z,27.60
2018-06-16T10:32:56.493Z,28.00
2018-06-16T10:37:53.409Z,28.20
2018-06-16T10:40:22.065Z,28.20
2018-06-16T10:42:50.705Z,28.40
2018-06-16T10:45:19.356Z,28.80
2018-06-16T10:47:47.985Z,29.30
2018-06-16T10:52:44.879Z,29.30
2018-06-16T10:55:13.609Z,29.30
2018-06-16T10:57:42.135Z,29.50
2018-06-16T11:00:10.777Z,29.60
2018-06-16T11:02:39.358Z,29.70
2018-06-16T11:05:07.963Z,29.50
2018-06-16T11:10:04.924Z,29.00
2018-06-16T11:15:02.782Z,29.30
2018-06-16T11:17:31.339Z,29.20
2018-06-16T11:19:59.997Z,28.90
2018-06-16T11:22:29.145Z,28.90
2018-06-16T11:24:57.789Z,28.80
2018-06-16T11:27:26.380Z,28.80
2018-06-16T11:29:54.905Z,29.30
2018-06-16T11:32:24.780Z,29.90
2018-06-16T11:34:54.054Z,29.80
2018-06-16T11:37:22.663Z,29.80
2018-06-16T11:39:51.322Z,29.90
2018-06-16T11:42:19.918Z,30.40
2018-06-16T11:44:49.288Z,30.50
2018-06-16T11:52:14.692Z,31.10
2018-06-16T11:54:43.346Z,31.20
2018-06-16T11:57:12.014Z,31.30
2018-06-16T11:59:40.508Z,31.30
2018-06-16T12:02:09.264Z,31.40
2018-06-16T12:07:06.823Z,32.10
2018-06-16T12:12:03.703Z,32.00
2018-06-16T12:19:29.160Z,32.30
2018-06-16T12:21:57.826Z,31.50
2018-06-16T12:26:55.191Z,30.70
2018-06-16T12:34:21.717Z,30.30
2018-06-16T12:36:51.325Z,30.30
2018-06-16T12:39:19.880Z,30.50
2018-06-16T12:41:48.555Z,30.20
2018-06-16T12:44:17.242Z,29.80
2018-06-16T12:46:45.817Z,29.70
2018-06-16T12:49:14.435Z,29.50
2018-06-16T12:51:43.071Z,29.40
2018-06-16T12:56:39.917Z,29.30
2018-06-16T13:01:36.909Z,29.00
2018-06-16T13:04:05.572Z,28.80
2018-06-16T13:09:02.449Z,28.00
2018-06-16T13:11:31.013Z,27.70
2018-06-16T13:18:57.393Z,27.90
2018-06-16T13:21:25.990Z,28.20
2018-06-16T13:26:22.926Z,29.00
2018-06-16T13:28:51.574Z,29.50
2018-06-16T13:31:20.349Z,30.10
2018-06-16T13:33:48.927Z,30.50
2018-06-16T13:36:18.549Z,30.50
2018-06-16T13:41:16.212Z,30.30
2018-06-16T13:43:44.775Z,30.10
2018-06-16T13:46:13.397Z,30.20
2018-06-16T13:48:41.977Z,30.30
2018-06-16T13:51:10.659Z,30.50
2018-06-16T13:53:39.298Z,30.60
2018-06-16T13:56:08.005Z,30.50
2018-06-16T13:58:36.796Z,30.90
2018-06-16T14:01:05.446Z,32.00
2018-06-16T14:03:34.091Z,33.70
2018-06-16T14:06:02.782Z,34.60
2018-06-16T14:08:31.439Z,34.30
2018-06-16T14:11:00.092Z,33.60
2018-06-16T14:13:29.537Z,33.50
2018-06-16T14:15:58.217Z,33.50
2018-06-16T14:18:26.764Z,34.90
2018-06-16T14:20:55.422Z,36.30
2018-06-16T14:25:52.435Z,38.10
2018-06-16T14:28:21.165Z,38.40
2018-06-16T14:33:18.192Z,38.90
2018-06-16T14:35:46.739Z,38.90
2018-06-16T14:38:16.103Z,38.50
2018-06-16T14:40:45.283Z,37.30
2018-06-16T14:43:13.853Z,36.10
2018-06-16T14:45:43.083Z,35.10
2018-06-16T14:53:08.275Z,34.50
2018-06-16T14:55:37.478Z,33.90
2018-06-16T14:58:06.557Z,33.50
2018-06-16T15:00:35.249Z,33.00
2018-06-16T15:03:03.978Z,32.50
2018-06-16T15:10:29.313Z,31.40
2018-06-16T15:12:57.877Z,30.90
2018-06-16T15:15:26.569Z,30.80
2018-06-16T15:17:55.250Z,31.10
2018-06-16T15:20:23.884Z,30.90
2018-06-16T15:22:52.828Z,30.30
2018-06-16T15:25:22.035Z,30.30
2018-06-16T15:27:50.712Z,30.80
2018-06-16T15:30:20.134Z,30.90
2018-06-16T15:35:17.143Z,32.40
2018-06-16T15:37:45.749Z,33.40
2018-06-16T15:40:14.336Z,34.50
2018-06-16T15:42:43.599Z,35.10
2018-06-16T15:45:12.251Z,35.40
2018-06-16T15:47:40.994Z,35.30
2018-06-16T15:50:10.191Z,35.90
2018-06-16T15:52:38.762Z,36.70
2018-06-16T15:55:07.378Z,35.90
2018-06-16T15:57:36.020Z,34.70
2018-06-16T16:02:44.624Z,33.30
2018-06-16T16:07:41.609Z,32.60
2018-06-16T16:10:10.274Z,33.30
2018-06-16T16:12:39.068Z,33.70
2018-06-16T16:15:07.787Z,33.60
2018-06-16T16:17:36.360Z,33.40
2018-06-16T16:20:05.016Z,33.00
2018-06-16T16:22:33.688Z,32.40
2018-06-16T16:25:02.378Z,31.80
2018-06-16T16:29:59.233Z,31.30
2018-06-16T16:32:28.770Z,31.20
2018-06-16T16:34:57.453Z,31.10
2018-06-16T16:37:26.118Z,31.00
2018-06-16T16:42:23.337Z,30.70
2018-06-16T16:44:52.132Z,31.50
2018-06-16T16:47:20.964Z,32.00
2018-06-16T16:52:18.280Z,31.50
2018-06-16T16:54:46.928Z,31.30
2018-06-16T16:57:15.708Z,31.20
2018-06-16T16:59:44.388Z,30.90
2018-06-16T17:02:14.254Z,30.60
2018-06-16T17:04:42.898Z,30.50
2018-06-16T17:07:11.583Z,30.20
2018-06-16T17:09:40.220Z,29.90
2018-06-16T17:12:08.861Z,29.60
2018-06-16T17:14:37.470Z,29.30
2018-06-16T17:17:06.148Z,29.20
2018-06-16T17:19:34.767Z,29.00
2018-06-16T17:22:03.376Z,28.70
2018-06-16T17:31:57.956Z,28.30
2018-06-16T17:34:26.523Z,28.40
2018-06-16T17:36:55.099Z,28.40
2018-06-16T17:39:23.918Z,28.50
2018-06-16T17:41:52.593Z,28.60
2018-06-16T17:44:24.384Z,28.70
2018-06-16T17:46:53.604Z,28.60
2018-06-16T17:49:22.376Z,28.30
2018-06-16T17:54:20.139Z,28.00
2018-06-16T17:56:48.721Z,27.80
2018-06-16T17:59:17.310Z,27.60
2018-06-16T18:01:46.065Z,27.40
2018-06-16T18:04:14.911Z,27.30
2018-06-16T18:06:43.525Z,27.10
2018-06-16T18:09:12.960Z,27.00
2018-06-16T18:11:41.635Z,26.90
2018-06-16T18:14:10.514Z,26.80
2018-06-16T18:16:39.177Z,26.70
2018-06-16T18:19:07.925Z,26.60
2018-06-16T18:21:36.861Z,26.50
2018-06-16T18:24:05.778Z,26.40
2018-06-16T18:26:36.885Z,26.30
2018-06-16T18:29:07.290Z,26.20
2018-06-16T18:31:38.102Z,26.10
2018-06-16T18:34:06.873Z,26.10
2018-06-16T18:36:43.616Z,26.10
2018-06-16T18:39:12.332Z,26.00
2018-06-16T18:41:43.190Z,25.90
2018-06-16T18:44:12.261Z,25.90
2018-06-16T18:46:41.125Z,25.90
2018-06-16T18:49:12.729Z,25.80
2018-06-16T18:51:41.437Z,25.70
2018-06-16T18:54:15.378Z,25.70
2018-06-16T18:56:44.505Z,25.60
2018-06-16T18:59:14.306Z,25.60
2018-06-16T19:01:45.923Z,25.60
2018-06-16T19:04:16.529Z,25.50
2018-06-16T19:06:47.430Z,25.50
2018-06-16T19:09:16.848Z,25.40
2018-06-16T19:11:46.405Z,25.40
2018-06-16T19:14:15.228Z,25.40
2018-06-16T19:19:12.747Z,25.30
2018-06-16T19:21:42.229Z,25.30
2018-06-16T19:29:07.793Z,25.20
2018-06-16T19:31:37.044Z,25.20
2018-06-16T19:34:05.670Z,25.10
2018-06-16T19:39:05.898Z,25.10
2018-06-16T19:44:08.973Z,25.00
2018-06-16T19:46:37.904Z,25.00
2018-06-16T19:49:08.735Z,24.90
2018-06-16T19:51:37.700Z,24.90
2018-06-16T19:56:34.678Z,24.80
2018-06-16T19:59:03.289Z,24.80
2018-06-16T20:01:32.065Z,24.80
2018-06-16T20:04:00.646Z,24.70
2018-06-16T20:06:30.895Z,24.70
2018-06-16T20:08:59.448Z,24.70
2018-06-16T20:11:29.114Z,24.70
2018-06-16T20:13:59.580Z,24.60
2018-06-16T20:16:28.295Z,24.60
2018-06-16T20:19:00.707Z,24.60
2018-06-16T20:34:01.067Z,24.40
2018-06-16T20:36:31.002Z,24.30
2018-06-16T20:38:59.641Z,24.20
2018-06-16T20:41:28.400Z,24.20
2018-06-16T20:46:27.120Z,24.10
2018-06-16T20:48:56.069Z,24.00
2018-06-16T20:51:24.739Z,24.00
2018-06-16T20:53:53.307Z,23.90
2018-06-16T20:56:22.034Z,23.80
2018-06-16T21:01:20.410Z,23.70
2018-06-16T21:03:49.275Z,23.60
2018-06-16T21:06:18.058Z,23.60
2018-06-16T21:08:46.860Z,23.60
2018-06-16T21:11:15.462Z,23.50
2018-06-16T21:13:44.093Z,23.50
2018-06-16T21:16:12.721Z,23.40
2018-06-16T21:18:41.501Z,23.40
2018-06-16T21:21:10.171Z,23.20
2018-06-16T21:23:38.891Z,23.20
2018-06-16T21:26:07.888Z,23.10
2018-06-16T21:28:36.621Z,23.10
2018-06-16T21:31:05.206Z,23.00
2018-06-16T21:33:33.810Z,22.90
2018-06-16T21:36:02.473Z,22.90
2018-06-16T21:38:31.125Z,22.80
2018-06-16T21:45:56.693Z,22.60
2018-06-16T21:48:26.142Z,22.60
2018-06-16T21:50:55.420Z,22.50
2018-06-16T21:53:24.396Z,22.50
2018-06-16T21:55:53.198Z,22.40
2018-06-16T21:58:25.201Z,22.40
2018-06-16T22:03:25.380Z,22.40
2018-06-16T22:05:55.046Z,22.40
2018-06-16T22:08:29.116Z,22.40
2018-06-16T22:10:57.683Z,22.40
2018-06-16T22:13:26.419Z,22.30
2018-06-16T22:15:55.086Z,22.30
2018-06-16T22:18:23.770Z,22.30
2018-06-16T22:20:52.387Z,22.20
2018-06-16T22:25:49.401Z,22.20
2018-06-16T22:28:18.103Z,22.20
2018-06-16T22:30:47.118Z,22.20
2018-06-16T22:33:16.155Z,22.20
2018-06-16T22:35:44.881Z,22.20
2018-06-16T22:38:13.937Z,22.20
2018-06-16T22:40:42.552Z,22.20
2018-06-16T22:43:11.894Z,22.20
2018-06-16T22:53:06.348Z,22.30
2018-06-16T22:55:35.169Z,22.30
2018-06-16T22:58:03.868Z,22.30
2018-06-16T23:00:32.766Z,22.30
2018-06-16T23:03:01.488Z,22.30
2018-06-16T23:05:31.328Z,22.30
2018-06-16T23:08:00.008Z,22.30
2018-06-16T23:10:28.977Z,22.30
2018-06-16T23:12:57.757Z,22.30
2018-06-16T23:15:26.500Z,22.30
2018-06-16T23:17:55.231Z,22.20
2018-06-16T23:20:25.403Z,22.20
2018-06-16T23:25:24.119Z,22.20
2018-06-16T23:27:52.962Z,22.20
2018-06-16T23:30:21.605Z,22.20
2018-06-16T23:32:50.457Z,22.20
2018-06-16T23:35:19.174Z,22.20
2018-06-16T23:37:48.645Z,22.10
2018-06-16T23:40:17.990Z,22.10
2018-06-16T23:47:43.663Z,22.00
2018-06-16T23:50:12.494Z,22.00
2018-06-16T23:52:41.338Z,21.90
2018-06-16T23:55:10.769Z,21.90
2018-06-16T23:57:39.379Z,21.90
